sensor_id;sensor_type;location;lat;lon;timestamp;P1;durP1;ratioP1;P2;durP2;ratioP2
6300;SDS011;3183;51.010;6.898;2022-12-07T00:01:03;33.93;;;18.17;;
6300;SDS011;3183;51.010;6.898;2022-12-07T00:03:32;40.53;;;18.87;;
6300;SDS011;3183;51.010;6.898;2022-12-07T00:05:59;36.00;;;19.20;;
6300;SDS011;3183;51.010;6.898;2022-12-07T00:08:27;30.17;;;17.03;;
6300;SDS011;3183;51.010;6.898;2022-12-07T00:10:54;33.43;;;17.23;;
6300;SDS011;3183;51.010;6.898;2022-12-07T00:13:21;37.00;;;17.60;;
6300;SDS011;3183;51.010;6.898;2022-12-07T00:15:48;33.53;;;18.03;;
6300;SDS011;3183;51.010;6.898;2022-12-07T00:18:15;31.73;;;17.03;;
6300;SDS011;3183;51.010;6.898;2022-12-07T00:20:43;37.33;;;18.17;;
6300;SDS011;3183;51.010;6.898;2022-12-07T00:23:11;35.57;;;17.57;;
6300;SDS011;3183;51.010;6.898;2022-12-07T00:25:38;36.60;;;20.43;;
6300;SDS011;3183;51.010;6.898;2022-12-07T00:28:05;37.63;;;18.93;;
6300;SDS011;3183;51.010;6.898;2022-12-07T00:30:34;31.73;;;18.53;;
6300;SDS011;3183;51.010;6.898;2022-12-07T00:33:01;35.93;;;19.17;;
6300;SDS011;3183;51.010;6.898;2022-12-07T00:35:28;34.33;;;18.60;;
6300;SDS011;3183;51.010;6.898;2022-12-07T00:37:57;35.23;;;19.07;;
6300;SDS011;3183;51.010;6.898;2022-12-07T00:40:24;44.60;;;20.13;;
6300;SDS011;3183;51.010;6.898;2022-12-07T00:42:51;39.60;;;20.30;;
6300;SDS011;3183;51.010;6.898;2022-12-07T00:45:18;40.80;;;21.90;;
6300;SDS011;3183;51.010;6.898;2022-12-07T00:47:45;41.50;;;19.73;;
6300;SDS011;3183;51.010;6.898;2022-12-07T00:50:12;31.23;;;18.20;;
6300;SDS011;3183;51.010;6.898;2022-12-07T00:52:39;38.23;;;18.67;;
6300;SDS011;3183;51.010;6.898;2022-12-07T00:55:08;39.13;;;18.90;;
6300;SDS011;3183;51.010;6.898;2022-12-07T00:57:35;40.47;;;17.93;;
6300;SDS011;3183;51.010;6.898;2022-12-07T01:00:02;36.93;;;19.50;;
6300;SDS011;3183;51.010;6.898;2022-12-07T01:02:29;34.10;;;19.40;;
6300;SDS011;3183;51.010;6.898;2022-12-07T01:04:56;41.43;;;19.77;;
6300;SDS011;3183;51.010;6.898;2022-12-07T01:07:23;41.70;;;20.10;;
6300;SDS011;3183;51.010;6.898;2022-12-07T01:09:50;43.20;;;19.50;;
6300;SDS011;3183;51.010;6.898;2022-12-07T01:12:19;32.63;;;18.90;;
6300;SDS011;3183;51.010;6.898;2022-12-07T01:14:46;40.13;;;21.50;;
6300;SDS011;3183;51.010;6.898;2022-12-07T01:17:13;42.87;;;20.43;;
6300;SDS011;3183;51.010;6.898;2022-12-07T01:19:40;41.00;;;21.40;;
6300;SDS011;3183;51.010;6.898;2022-12-07T01:22:07;33.20;;;19.40;;
6300;SDS011;3183;51.010;6.898;2022-12-07T01:24:34;37.30;;;19.30;;
6300;SDS011;3183;51.010;6.898;2022-12-07T01:27:01;46.17;;;21.67;;
6300;SDS011;3183;51.010;6.898;2022-12-07T01:29:30;39.27;;;21.20;;
6300;SDS011;3183;51.010;6.898;2022-12-07T01:31:57;37.20;;;19.70;;
6300;SDS011;3183;51.010;6.898;2022-12-07T01:34:24;39.80;;;20.93;;
6300;SDS011;3183;51.010;6.898;2022-12-07T01:36:51;35.57;;;20.67;;
6300;SDS011;3183;51.010;6.898;2022-12-07T01:39:18;40.00;;;19.73;;
6300;SDS011;3183;51.010;6.898;2022-12-07T01:41:45;35.83;;;19.13;;
6300;SDS011;3183;51.010;6.898;2022-12-07T01:44:17;37.47;;;20.80;;
6300;SDS011;3183;51.010;6.898;2022-12-07T01:46:47;40.87;;;23.27;;
6300;SDS011;3183;51.010;6.898;2022-12-07T01:49:15;46.33;;;21.53;;
6300;SDS011;3183;51.010;6.898;2022-12-07T01:51:43;39.80;;;21.20;;
6300;SDS011;3183;51.010;6.898;2022-12-07T01:54:12;38.37;;;21.17;;
6300;SDS011;3183;51.010;6.898;2022-12-07T01:56:40;43.57;;;20.53;;
6300;SDS011;3183;51.010;6.898;2022-12-07T01:59:09;39.03;;;21.40;;
6300;SDS011;3183;51.010;6.898;2022-12-07T02:01:36;37.03;;;21.10;;
6300;SDS011;3183;51.010;6.898;2022-12-07T02:04:05;40.90;;;21.23;;
6300;SDS011;3183;51.010;6.898;2022-12-07T02:06:32;42.93;;;21.30;;
6300;SDS011;3183;51.010;6.898;2022-12-07T02:09:00;36.77;;;19.97;;
6300;SDS011;3183;51.010;6.898;2022-12-07T02:11:27;44.80;;;22.13;;
6300;SDS011;3183;51.010;6.898;2022-12-07T02:13:54;36.30;;;19.47;;
6300;SDS011;3183;51.010;6.898;2022-12-07T02:16:24;42.73;;;22.73;;
6300;SDS011;3183;51.010;6.898;2022-12-07T02:18:55;35.80;;;18.53;;
6300;SDS011;3183;51.010;6.898;2022-12-07T02:21:29;39.73;;;23.00;;
6300;SDS011;3183;51.010;6.898;2022-12-07T02:26:45;35.50;;;19.70;;
6300;SDS011;3183;51.010;6.898;2022-12-07T02:29:18;40.47;;;21.20;;
6300;SDS011;3183;51.010;6.898;2022-12-07T02:31:50;35.73;;;20.13;;
6300;SDS011;3183;51.010;6.898;2022-12-07T02:34:21;47.33;;;21.47;;
6300;SDS011;3183;51.010;6.898;2022-12-07T02:36:53;37.03;;;19.73;;
6300;SDS011;3183;51.010;6.898;2022-12-07T02:39:23;40.60;;;20.97;;
6300;SDS011;3183;51.010;6.898;2022-12-07T02:41:52;40.37;;;22.43;;
6300;SDS011;3183;51.010;6.898;2022-12-07T02:44:24;45.90;;;22.37;;
6300;SDS011;3183;51.010;6.898;2022-12-07T02:46:53;48.20;;;21.57;;
6300;SDS011;3183;51.010;6.898;2022-12-07T02:49:21;38.70;;;22.07;;
6300;SDS011;3183;51.010;6.898;2022-12-07T02:51:49;44.30;;;21.60;;
6300;SDS011;3183;51.010;6.898;2022-12-07T02:54:17;44.53;;;22.40;;
6300;SDS011;3183;51.010;6.898;2022-12-07T02:56:46;48.37;;;23.10;;
6300;SDS011;3183;51.010;6.898;2022-12-07T02:59:16;38.03;;;21.57;;
6300;SDS011;3183;51.010;6.898;2022-12-07T03:01:50;42.87;;;22.47;;
6300;SDS011;3183;51.010;6.898;2022-12-07T03:04:22;42.67;;;23.70;;
6300;SDS011;3183;51.010;6.898;2022-12-07T03:06:56;45.70;;;23.23;;
6300;SDS011;3183;51.010;6.898;2022-12-07T03:09:25;49.57;;;24.43;;
6300;SDS011;3183;51.010;6.898;2022-12-07T03:11:55;46.50;;;23.67;;
6300;SDS011;3183;51.010;6.898;2022-12-07T03:14:27;46.63;;;24.23;;
6300;SDS011;3183;51.010;6.898;2022-12-07T03:17:00;47.93;;;24.50;;
6300;SDS011;3183;51.010;6.898;2022-12-07T03:19:27;49.63;;;25.77;;
6300;SDS011;3183;51.010;6.898;2022-12-07T03:21:58;45.37;;;25.40;;
6300;SDS011;3183;51.010;6.898;2022-12-07T03:24:27;45.20;;;24.30;;
6300;SDS011;3183;51.010;6.898;2022-12-07T03:26:55;56.70;;;26.07;;
6300;SDS011;3183;51.010;6.898;2022-12-07T03:29:25;45.97;;;24.90;;
6300;SDS011;3183;51.010;6.898;2022-12-07T03:31:54;54.20;;;26.97;;
6300;SDS011;3183;51.010;6.898;2022-12-07T03:34:24;50.73;;;25.47;;
6300;SDS011;3183;51.010;6.898;2022-12-07T03:36:55;58.30;;;27.70;;
6300;SDS011;3183;51.010;6.898;2022-12-07T03:39:24;57.53;;;24.83;;
6300;SDS011;3183;51.010;6.898;2022-12-07T03:41:52;48.93;;;24.30;;
6300;SDS011;3183;51.010;6.898;2022-12-07T03:44:20;50.70;;;24.27;;
6300;SDS011;3183;51.010;6.898;2022-12-07T03:46:49;46.33;;;24.63;;
6300;SDS011;3183;51.010;6.898;2022-12-07T03:49:21;47.87;;;25.30;;
6300;SDS011;3183;51.010;6.898;2022-12-07T03:51:52;45.80;;;24.37;;
6300;SDS011;3183;51.010;6.898;2022-12-07T03:54:22;55.93;;;26.70;;
6300;SDS011;3183;51.010;6.898;2022-12-07T03:56:50;48.10;;;26.17;;
6300;SDS011;3183;51.010;6.898;2022-12-07T03:59:17;48.53;;;23.60;;
6300;SDS011;3183;51.010;6.898;2022-12-07T04:01:45;50.17;;;24.57;;
6300;SDS011;3183;51.010;6.898;2022-12-07T04:04:17;62.53;;;25.73;;
6300;SDS011;3183;51.010;6.898;2022-12-07T04:06:44;58.77;;;24.43;;
6300;SDS011;3183;51.010;6.898;2022-12-07T04:09:13;54.33;;;26.10;;
6300;SDS011;3183;51.010;6.898;2022-12-07T04:11:40;47.83;;;24.67;;
6300;SDS011;3183;51.010;6.898;2022-12-07T04:14:07;59.97;;;25.97;;
6300;SDS011;3183;51.010;6.898;2022-12-07T04:16:47;46.17;;;22.57;;
6300;SDS011;3183;51.010;6.898;2022-12-07T04:19:14;43.70;;;23.23;;
6300;SDS011;3183;51.010;6.898;2022-12-07T04:21:42;50.77;;;25.17;;
6300;SDS011;3183;51.010;6.898;2022-12-07T04:24:09;58.87;;;25.40;;
6300;SDS011;3183;51.010;6.898;2022-12-07T04:26:37;46.50;;;25.43;;
6300;SDS011;3183;51.010;6.898;2022-12-07T04:29:05;48.07;;;25.10;;
6300;SDS011;3183;51.010;6.898;2022-12-07T04:31:32;48.43;;;23.23;;
6300;SDS011;3183;51.010;6.898;2022-12-07T04:33:59;51.53;;;25.27;;
6300;SDS011;3183;51.010;6.898;2022-12-07T04:36:26;51.10;;;24.10;;
6300;SDS011;3183;51.010;6.898;2022-12-07T04:38:53;53.97;;;25.47;;
6300;SDS011;3183;51.010;6.898;2022-12-07T04:41:20;50.07;;;23.20;;
6300;SDS011;3183;51.010;6.898;2022-12-07T04:43:53;44.93;;;24.90;;
6300;SDS011;3183;51.010;6.898;2022-12-07T04:46:21;49.43;;;23.80;;
6300;SDS011;3183;51.010;6.898;2022-12-07T04:48:48;50.40;;;22.80;;
6300;SDS011;3183;51.010;6.898;2022-12-07T04:51:15;48.40;;;23.73;;
6300;SDS011;3183;51.010;6.898;2022-12-07T04:53:44;45.90;;;23.67;;
6300;SDS011;3183;51.010;6.898;2022-12-07T04:56:11;54.00;;;25.00;;
6300;SDS011;3183;51.010;6.898;2022-12-07T04:58:38;50.57;;;23.87;;
6300;SDS011;3183;51.010;6.898;2022-12-07T05:01:07;53.90;;;26.80;;
6300;SDS011;3183;51.010;6.898;2022-12-07T05:03:35;49.70;;;23.73;;
6300;SDS011;3183;51.010;6.898;2022-12-07T05:06:02;60.10;;;25.93;;
6300;SDS011;3183;51.010;6.898;2022-12-07T05:08:29;53.80;;;25.77;;
6300;SDS011;3183;51.010;6.898;2022-12-07T05:10:56;47.23;;;22.40;;
6300;SDS011;3183;51.010;6.898;2022-12-07T05:13:23;53.85;;;28.10;;
6300;SDS011;3183;51.010;6.898;2022-12-07T05:15:50;50.00;;;25.17;;
6300;SDS011;3183;51.010;6.898;2022-12-07T05:18:19;57.67;;;26.70;;
6300;SDS011;3183;51.010;6.898;2022-12-07T05:20:46;45.53;;;25.07;;
6300;SDS011;3183;51.010;6.898;2022-12-07T05:23:13;43.10;;;22.60;;
6300;SDS011;3183;51.010;6.898;2022-12-07T05:25:40;43.37;;;24.80;;
6300;SDS011;3183;51.010;6.898;2022-12-07T05:28:07;52.70;;;24.93;;
6300;SDS011;3183;51.010;6.898;2022-12-07T05:30:34;54.73;;;27.00;;
6300;SDS011;3183;51.010;6.898;2022-12-07T05:33:02;52.13;;;27.03;;
6300;SDS011;3183;51.010;6.898;2022-12-07T05:35:31;49.40;;;24.97;;
6300;SDS011;3183;51.010;6.898;2022-12-07T05:37:58;52.73;;;26.47;;
6300;SDS011;3183;51.010;6.898;2022-12-07T05:40:25;48.10;;;24.30;;
6300;SDS011;3183;51.010;6.898;2022-12-07T05:42:52;46.77;;;24.30;;
6300;SDS011;3183;51.010;6.898;2022-12-07T05:45:19;51.47;;;23.67;;
6300;SDS011;3183;51.010;6.898;2022-12-07T05:47:46;39.00;;;21.60;;
6300;SDS011;3183;51.010;6.898;2022-12-07T05:50:14;40.03;;;21.80;;
6300;SDS011;3183;51.010;6.898;2022-12-07T05:52:42;38.13;;;20.87;;
6300;SDS011;3183;51.010;6.898;2022-12-07T05:55:09;51.60;;;22.43;;
6300;SDS011;3183;51.010;6.898;2022-12-07T05:57:36;39.67;;;21.10;;
6300;SDS011;3183;51.010;6.898;2022-12-07T06:00:04;38.97;;;20.90;;
6300;SDS011;3183;51.010;6.898;2022-12-07T06:02:30;40.80;;;20.80;;
6300;SDS011;3183;51.010;6.898;2022-12-07T06:04:57;39.20;;;22.27;;
6300;SDS011;3183;51.010;6.898;2022-12-07T06:07:24;42.10;;;20.90;;
6300;SDS011;3183;51.010;6.898;2022-12-07T06:09:53;43.63;;;22.80;;
6300;SDS011;3183;51.010;6.898;2022-12-07T06:12:20;40.70;;;21.43;;
6300;SDS011;3183;51.010;6.898;2022-12-07T06:14:58;41.63;;;21.70;;
6300;SDS011;3183;51.010;6.898;2022-12-07T06:17:26;39.70;;;20.03;;
6300;SDS011;3183;51.010;6.898;2022-12-07T06:19:53;49.93;;;22.20;;
6300;SDS011;3183;51.010;6.898;2022-12-07T06:22:20;45.30;;;22.67;;
6300;SDS011;3183;51.010;6.898;2022-12-07T06:24:47;37.50;;;20.87;;
6300;SDS011;3183;51.010;6.898;2022-12-07T06:27:15;41.17;;;21.73;;
6300;SDS011;3183;51.010;6.898;2022-12-07T06:29:42;52.97;;;23.97;;
6300;SDS011;3183;51.010;6.898;2022-12-07T06:32:09;36.43;;;20.53;;
6300;SDS011;3183;51.010;6.898;2022-12-07T06:34:37;41.63;;;22.13;;
6300;SDS011;3183;51.010;6.898;2022-12-07T06:37:04;38.40;;;20.10;;
6300;SDS011;3183;51.010;6.898;2022-12-07T06:39:31;45.10;;;23.10;;
6300;SDS011;3183;51.010;6.898;2022-12-07T06:41:58;40.83;;;21.30;;
6300;SDS011;3183;51.010;6.898;2022-12-07T06:44:27;43.50;;;22.00;;
6300;SDS011;3183;51.010;6.898;2022-12-07T06:46:54;47.97;;;22.93;;
6300;SDS011;3183;51.010;6.898;2022-12-07T06:49:21;50.67;;;22.67;;
6300;SDS011;3183;51.010;6.898;2022-12-07T06:51:48;41.90;;;20.50;;
6300;SDS011;3183;51.010;6.898;2022-12-07T06:54:15;40.27;;;21.07;;
6300;SDS011;3183;51.010;6.898;2022-12-07T06:56:43;40.83;;;22.33;;
6300;SDS011;3183;51.010;6.898;2022-12-07T06:59:10;39.93;;;21.97;;
6300;SDS011;3183;51.010;6.898;2022-12-07T07:01:38;47.93;;;24.40;;
6300;SDS011;3183;51.010;6.898;2022-12-07T07:04:05;36.70;;;21.10;;
6300;SDS011;3183;51.010;6.898;2022-12-07T07:06:32;45.03;;;21.03;;
6300;SDS011;3183;51.010;6.898;2022-12-07T07:09:00;44.77;;;22.90;;
6300;SDS011;3183;51.010;6.898;2022-12-07T07:11:27;44.90;;;23.30;;
6300;SDS011;3183;51.010;6.898;2022-12-07T07:13:54;46.70;;;21.93;;
6300;SDS011;3183;51.010;6.898;2022-12-07T07:16:27;45.63;;;20.37;;
6300;SDS011;3183;51.010;6.898;2022-12-07T07:18:56;39.83;;;21.90;;
6300;SDS011;3183;51.010;6.898;2022-12-07T07:21:23;43.90;;;22.83;;
6300;SDS011;3183;51.010;6.898;2022-12-07T07:23:50;41.40;;;21.20;;
6300;SDS011;3183;51.010;6.898;2022-12-07T07:26:17;45.37;;;22.07;;
6300;SDS011;3183;51.010;6.898;2022-12-07T07:28:44;40.37;;;20.47;;
6300;SDS011;3183;51.010;6.898;2022-12-07T07:31:12;37.60;;;20.30;;
6300;SDS011;3183;51.010;6.898;2022-12-07T07:33:39;41.60;;;20.30;;
6300;SDS011;3183;51.010;6.898;2022-12-07T07:36:08;38.10;;;20.00;;
6300;SDS011;3183;51.010;6.898;2022-12-07T07:38:35;38.50;;;21.07;;
6300;SDS011;3183;51.010;6.898;2022-12-07T07:41:02;45.47;;;21.33;;
6300;SDS011;3183;51.010;6.898;2022-12-07T07:43:29;39.70;;;21.83;;
6300;SDS011;3183;51.010;6.898;2022-12-07T07:45:56;42.73;;;20.40;;
6300;SDS011;3183;51.010;6.898;2022-12-07T07:48:23;44.10;;;21.10;;
6300;SDS011;3183;51.010;6.898;2022-12-07T07:50:50;39.53;;;20.83;;
6300;SDS011;3183;51.010;6.898;2022-12-07T07:53:18;42.47;;;21.60;;
6300;SDS011;3183;51.010;6.898;2022-12-07T07:55:52;40.53;;;21.50;;
6300;SDS011;3183;51.010;6.898;2022-12-07T07:58:19;43.60;;;22.17;;
6300;SDS011;3183;51.010;6.898;2022-12-07T08:00:46;39.50;;;21.90;;
6300;SDS011;3183;51.010;6.898;2022-12-07T08:03:13;43.37;;;21.50;;
6300;SDS011;3183;51.010;6.898;2022-12-07T08:05:40;44.50;;;22.50;;
6300;SDS011;3183;51.010;6.898;2022-12-07T08:08:07;43.73;;;23.30;;
6300;SDS011;3183;51.010;6.898;2022-12-07T08:10:36;43.70;;;23.63;;
6300;SDS011;3183;51.010;6.898;2022-12-07T08:13:03;44.13;;;24.10;;
6300;SDS011;3183;51.010;6.898;2022-12-07T08:15:39;49.33;;;23.13;;
6300;SDS011;3183;51.010;6.898;2022-12-07T08:18:07;47.07;;;23.30;;
6300;SDS011;3183;51.010;6.898;2022-12-07T08:20:35;48.17;;;23.30;;
6300;SDS011;3183;51.010;6.898;2022-12-07T08:23:02;54.00;;;24.73;;
6300;SDS011;3183;51.010;6.898;2022-12-07T08:25:29;47.13;;;23.70;;
6300;SDS011;3183;51.010;6.898;2022-12-07T08:27:58;40.93;;;21.83;;
6300;SDS011;3183;51.010;6.898;2022-12-07T08:30:26;51.23;;;22.63;;
6300;SDS011;3183;51.010;6.898;2022-12-07T08:32:54;34.30;;;20.57;;
6300;SDS011;3183;51.010;6.898;2022-12-07T08:35:22;32.90;;;21.13;;
6300;SDS011;3183;51.010;6.898;2022-12-07T08:37:49;34.60;;;21.20;;
6300;SDS011;3183;51.010;6.898;2022-12-07T08:40:16;49.83;;;20.43;;
6300;SDS011;3183;51.010;6.898;2022-12-07T08:42:44;40.43;;;20.30;;
6300;SDS011;3183;51.010;6.898;2022-12-07T08:45:14;36.43;;;19.67;;
6300;SDS011;3183;51.010;6.898;2022-12-07T08:47:41;32.10;;;18.90;;
6300;SDS011;3183;51.010;6.898;2022-12-07T08:50:10;33.50;;;17.97;;
6300;SDS011;3183;51.010;6.898;2022-12-07T08:52:38;27.20;;;17.30;;
6300;SDS011;3183;51.010;6.898;2022-12-07T08:55:06;32.00;;;18.77;;
6300;SDS011;3183;51.010;6.898;2022-12-07T08:57:33;37.63;;;17.80;;
6300;SDS011;3183;51.010;6.898;2022-12-07T09:00:02;33.57;;;18.07;;
6300;SDS011;3183;51.010;6.898;2022-12-07T09:02:31;30.37;;;16.57;;
6300;SDS011;3183;51.010;6.898;2022-12-07T09:04:58;27.03;;;15.97;;
6300;SDS011;3183;51.010;6.898;2022-12-07T09:07:25;29.67;;;16.50;;
6300;SDS011;3183;51.010;6.898;2022-12-07T09:09:53;27.20;;;15.07;;
6300;SDS011;3183;51.010;6.898;2022-12-07T09:12:20;26.63;;;17.00;;
6300;SDS011;3183;51.010;6.898;2022-12-07T09:14:47;31.40;;;16.70;;
6300;SDS011;3183;51.010;6.898;2022-12-07T09:17:14;27.87;;;16.13;;
6300;SDS011;3183;51.010;6.898;2022-12-07T09:19:43;27.90;;;14.47;;
6300;SDS011;3183;51.010;6.898;2022-12-07T09:22:10;25.50;;;15.83;;
6300;SDS011;3183;51.010;6.898;2022-12-07T09:24:37;23.33;;;14.00;;
6300;SDS011;3183;51.010;6.898;2022-12-07T09:27:04;26.63;;;15.90;;
6300;SDS011;3183;51.010;6.898;2022-12-07T09:29:31;34.20;;;15.67;;
6300;SDS011;3183;51.010;6.898;2022-12-07T09:31:58;22.60;;;12.90;;
6300;SDS011;3183;51.010;6.898;2022-12-07T09:34:25;26.23;;;15.23;;
6300;SDS011;3183;51.010;6.898;2022-12-07T09:36:54;32.73;;;13.83;;
6300;SDS011;3183;51.010;6.898;2022-12-07T09:39:21;28.33;;;13.80;;
6300;SDS011;3183;51.010;6.898;2022-12-07T09:41:48;29.90;;;15.87;;
6300;SDS011;3183;51.010;6.898;2022-12-07T09:44:17;25.03;;;14.67;;
6300;SDS011;3183;51.010;6.898;2022-12-07T09:46:46;31.50;;;14.33;;
6300;SDS011;3183;51.010;6.898;2022-12-07T09:49:16;23.90;;;14.43;;
6300;SDS011;3183;51.010;6.898;2022-12-07T09:51:43;27.67;;;13.63;;
6300;SDS011;3183;51.010;6.898;2022-12-07T09:54:13;20.70;;;12.83;;
6300;SDS011;3183;51.010;6.898;2022-12-07T09:56:40;25.00;;;12.30;;
6300;SDS011;3183;51.010;6.898;2022-12-07T09:59:09;29.80;;;13.37;;
6300;SDS011;3183;51.010;6.898;2022-12-07T10:01:39;26.73;;;11.47;;
6300;SDS011;3183;51.010;6.898;2022-12-07T10:04:09;24.03;;;12.90;;
6300;SDS011;3183;51.010;6.898;2022-12-07T10:06:37;19.83;;;9.90;;
6300;SDS011;3183;51.010;6.898;2022-12-07T10:09:08;26.33;;;11.37;;
6300;SDS011;3183;51.010;6.898;2022-12-07T10:11:38;19.03;;;9.80;;
6300;SDS011;3183;51.010;6.898;2022-12-07T10:14:24;21.93;;;9.50;;
6300;SDS011;3183;51.010;6.898;2022-12-07T10:16:53;31.43;;;9.70;;
6300;SDS011;3183;51.010;6.898;2022-12-07T10:19:22;19.00;;;10.00;;
6300;SDS011;3183;51.010;6.898;2022-12-07T10:22:04;27.90;;;9.63;;
6300;SDS011;3183;51.010;6.898;2022-12-07T10:24:32;26.13;;;9.60;;
6300;SDS011;3183;51.010;6.898;2022-12-07T10:27:01;22.80;;;9.30;;
6300;SDS011;3183;51.010;6.898;2022-12-07T10:29:29;30.60;;;12.83;;
6300;SDS011;3183;51.010;6.898;2022-12-07T10:31:57;19.93;;;10.53;;
6300;SDS011;3183;51.010;6.898;2022-12-07T10:34:25;20.80;;;11.60;;
6300;SDS011;3183;51.010;6.898;2022-12-07T10:36:54;21.30;;;9.80;;
6300;SDS011;3183;51.010;6.898;2022-12-07T10:39:39;26.53;;;8.60;;
6300;SDS011;3183;51.010;6.898;2022-12-07T10:42:15;15.80;;;8.20;;
6300;SDS011;3183;51.010;6.898;2022-12-07T10:44:42;13.83;;;6.77;;
6300;SDS011;3183;51.010;6.898;2022-12-07T10:47:15;14.27;;;7.40;;
6300;SDS011;3183;51.010;6.898;2022-12-07T10:49:53;19.33;;;9.00;;
6300;SDS011;3183;51.010;6.898;2022-12-07T10:52:26;13.30;;;7.70;;
6300;SDS011;3183;51.010;6.898;2022-12-07T10:55:02;16.10;;;7.70;;
6300;SDS011;3183;51.010;6.898;2022-12-07T10:57:34;24.13;;;8.63;;
6300;SDS011;3183;51.010;6.898;2022-12-07T11:00:07;16.53;;;7.70;;
6300;SDS011;3183;51.010;6.898;2022-12-07T11:02:38;14.97;;;7.73;;
6300;SDS011;3183;51.010;6.898;2022-12-07T11:05:11;14.30;;;7.07;;
6300;SDS011;3183;51.010;6.898;2022-12-07T11:07:43;12.40;;;7.47;;
6300;SDS011;3183;51.010;6.898;2022-12-07T11:10:15;15.93;;;6.40;;
6300;SDS011;3183;51.010;6.898;2022-12-07T11:12:52;23.43;;;7.80;;
6300;SDS011;3183;51.010;6.898;2022-12-07T11:15:24;14.70;;;7.67;;
6300;SDS011;3183;51.010;6.898;2022-12-07T11:17:53;16.47;;;7.33;;
6300;SDS011;3183;51.010;6.898;2022-12-07T11:20:28;19.77;;;7.73;;
6300;SDS011;3183;51.010;6.898;2022-12-07T11:23:00;16.67;;;7.93;;
6300;SDS011;3183;51.010;6.898;2022-12-07T11:25:31;18.63;;;7.83;;
6300;SDS011;3183;51.010;6.898;2022-12-07T11:28:06;20.77;;;7.50;;
6300;SDS011;3183;51.010;6.898;2022-12-07T11:30:38;17.63;;;7.37;;
6300;SDS011;3183;51.010;6.898;2022-12-07T11:33:15;14.00;;;6.93;;
6300;SDS011;3183;51.010;6.898;2022-12-07T11:35:45;22.93;;;7.90;;
6300;SDS011;3183;51.010;6.898;2022-12-07T11:38:17;25.83;;;7.50;;
6300;SDS011;3183;51.010;6.898;2022-12-07T11:40:46;23.57;;;7.60;;
6300;SDS011;3183;51.010;6.898;2022-12-07T11:43:18;14.97;;;7.80;;
6300;SDS011;3183;51.010;6.898;2022-12-07T11:45:47;21.20;;;8.00;;
6300;SDS011;3183;51.010;6.898;2022-12-07T11:48:18;12.43;;;6.90;;
6300;SDS011;3183;51.010;6.898;2022-12-07T11:50:47;16.87;;;7.80;;
6300;SDS011;3183;51.010;6.898;2022-12-07T11:53:19;18.57;;;8.70;;
6300;SDS011;3183;51.010;6.898;2022-12-07T11:55:48;15.40;;;7.53;;
6300;SDS011;3183;51.010;6.898;2022-12-07T11:58:29;13.10;;;7.60;;
6300;SDS011;3183;51.010;6.898;2022-12-07T12:01:07;23.03;;;8.60;;
6300;SDS011;3183;51.010;6.898;2022-12-07T12:03:36;17.90;;;8.33;;
6300;SDS011;3183;51.010;6.898;2022-12-07T12:06:05;18.87;;;8.30;;
6300;SDS011;3183;51.010;6.898;2022-12-07T12:08:34;18.17;;;8.20;;
6300;SDS011;3183;51.010;6.898;2022-12-07T12:11:03;20.40;;;8.73;;
6300;SDS011;3183;51.010;6.898;2022-12-07T12:13:50;21.10;;;8.47;;
6300;SDS011;3183;51.010;6.898;2022-12-07T12:16:34;25.40;;;10.20;;
6300;SDS011;3183;51.010;6.898;2022-12-07T12:19:11;24.83;;;9.93;;
6300;SDS011;3183;51.010;6.898;2022-12-07T12:21:42;19.13;;;10.23;;
6300;SDS011;3183;51.010;6.898;2022-12-07T12:24:10;19.10;;;10.27;;
6300;SDS011;3183;51.010;6.898;2022-12-07T12:26:38;26.80;;;11.93;;
6300;SDS011;3183;51.010;6.898;2022-12-07T12:29:17;29.53;;;11.97;;
6300;SDS011;3183;51.010;6.898;2022-12-07T12:31:47;21.53;;;9.83;;
6300;SDS011;3183;51.010;6.898;2022-12-07T12:34:33;19.90;;;9.93;;
6300;SDS011;3183;51.010;6.898;2022-12-07T12:37:00;23.43;;;10.63;;
6300;SDS011;3183;51.010;6.898;2022-12-07T12:39:27;28.30;;;10.20;;
6300;SDS011;3183;51.010;6.898;2022-12-07T12:41:58;26.63;;;10.60;;
6300;SDS011;3183;51.010;6.898;2022-12-07T12:44:43;20.17;;;9.77;;
6300;SDS011;3183;51.010;6.898;2022-12-07T12:47:39;21.33;;;9.83;;
6300;SDS011;3183;51.010;6.898;2022-12-07T12:50:16;20.13;;;9.80;;
6300;SDS011;3183;51.010;6.898;2022-12-07T12:52:49;12.40;;;7.20;;
6300;SDS011;3183;51.010;6.898;2022-12-07T12:55:18;16.53;;;7.80;;
6300;SDS011;3183;51.010;6.898;2022-12-07T12:57:47;25.37;;;8.57;;
6300;SDS011;3183;51.010;6.898;2022-12-07T13:00:36;17.40;;;7.17;;
6300;SDS011;3183;51.010;6.898;2022-12-07T13:03:04;12.63;;;6.53;;
6300;SDS011;3183;51.010;6.898;2022-12-07T13:05:31;23.50;;;7.87;;
6300;SDS011;3183;51.010;6.898;2022-12-07T13:07:59;16.10;;;7.20;;
6300;SDS011;3183;51.010;6.898;2022-12-07T13:10:31;24.60;;;7.10;;
6300;SDS011;3183;51.010;6.898;2022-12-07T13:13:01;13.43;;;5.80;;
6300;SDS011;3183;51.010;6.898;2022-12-07T13:15:37;14.47;;;8.10;;
6300;SDS011;3183;51.010;6.898;2022-12-07T13:18:22;13.50;;;7.47;;
6300;SDS011;3183;51.010;6.898;2022-12-07T13:20:53;19.23;;;8.40;;
6300;SDS011;3183;51.010;6.898;2022-12-07T13:23:21;15.40;;;7.60;;
6300;SDS011;3183;51.010;6.898;2022-12-07T13:25:51;17.07;;;7.63;;
6300;SDS011;3183;51.010;6.898;2022-12-07T13:28:20;18.17;;;8.17;;
6300;SDS011;3183;51.010;6.898;2022-12-07T13:30:58;17.60;;;8.97;;
6300;SDS011;3183;51.010;6.898;2022-12-07T13:33:27;15.60;;;7.27;;
6300;SDS011;3183;51.010;6.898;2022-12-07T13:35:55;16.00;;;7.40;;
6300;SDS011;3183;51.010;6.898;2022-12-07T13:38:25;21.03;;;8.13;;
6300;SDS011;3183;51.010;6.898;2022-12-07T13:41:04;14.80;;;7.57;;
6300;SDS011;3183;51.010;6.898;2022-12-07T13:43:41;16.73;;;7.83;;
6300;SDS011;3183;51.010;6.898;2022-12-07T13:46:10;20.90;;;9.03;;
6300;SDS011;3183;51.010;6.898;2022-12-07T13:48:43;20.13;;;10.10;;
6300;SDS011;3183;51.010;6.898;2022-12-07T13:51:16;18.10;;;8.60;;
6300;SDS011;3183;51.010;6.898;2022-12-07T13:53:45;19.27;;;8.70;;
6300;SDS011;3183;51.010;6.898;2022-12-07T13:56:13;20.70;;;9.50;;
6300;SDS011;3183;51.010;6.898;2022-12-07T13:58:41;29.70;;;11.60;;
6300;SDS011;3183;51.010;6.898;2022-12-07T14:01:09;18.97;;;9.77;;
6300;SDS011;3183;51.010;6.898;2022-12-07T14:03:38;22.37;;;10.50;;
6300;SDS011;3183;51.010;6.898;2022-12-07T14:06:22;23.90;;;10.90;;
6300;SDS011;3183;51.010;6.898;2022-12-07T14:09:09;19.77;;;10.00;;
6300;SDS011;3183;51.010;6.898;2022-12-07T14:11:36;20.33;;;9.43;;
6300;SDS011;3183;51.010;6.898;2022-12-07T14:14:04;23.40;;;9.50;;
6300;SDS011;3183;51.010;6.898;2022-12-07T14:16:34;21.47;;;11.07;;
6300;SDS011;3183;51.010;6.898;2022-12-07T14:19:02;21.77;;;9.23;;
6300;SDS011;3183;51.010;6.898;2022-12-07T14:21:30;21.93;;;10.10;;
6300;SDS011;3183;51.010;6.898;2022-12-07T14:24:08;21.13;;;9.47;;
6300;SDS011;3183;51.010;6.898;2022-12-07T14:26:36;21.70;;;9.10;;
6300;SDS011;3183;51.010;6.898;2022-12-07T14:29:19;17.73;;;10.20;;
6300;SDS011;3183;51.010;6.898;2022-12-07T14:31:48;16.43;;;8.10;;
6300;SDS011;3183;51.010;6.898;2022-12-07T14:34:15;29.53;;;9.20;;
6300;SDS011;3183;51.010;6.898;2022-12-07T14:36:42;23.47;;;9.73;;
6300;SDS011;3183;51.010;6.898;2022-12-07T14:39:09;21.07;;;9.67;;
6300;SDS011;3183;51.010;6.898;2022-12-07T14:41:36;19.87;;;8.53;;
6300;SDS011;3183;51.010;6.898;2022-12-07T14:44:19;31.53;;;10.07;;
6300;SDS011;3183;51.010;6.898;2022-12-07T14:46:48;17.70;;;9.13;;
6300;SDS011;3183;51.010;6.898;2022-12-07T14:49:15;25.23;;;8.60;;
6300;SDS011;3183;51.010;6.898;2022-12-07T14:51:43;21.67;;;9.80;;
6300;SDS011;3183;51.010;6.898;2022-12-07T14:54:13;19.87;;;9.70;;
6300;SDS011;3183;51.010;6.898;2022-12-07T14:56:41;21.33;;;8.83;;
6300;SDS011;3183;51.010;6.898;2022-12-07T14:59:08;24.50;;;10.13;;
6300;SDS011;3183;51.010;6.898;2022-12-07T15:01:35;26.53;;;9.80;;
6300;SDS011;3183;51.010;6.898;2022-12-07T15:04:04;25.63;;;10.00;;
6300;SDS011;3183;51.010;6.898;2022-12-07T15:06:32;30.73;;;9.63;;